Time;durP1;ratioP1;P1;durP2;ratioP2;P2;SDS_P1;SDS_P2;PMS_P1;PMS_P2;Temp;Humidity;BMP_temperature;BMP_pressure;BME280_temperature;BME280_humidity;BME280_pressure;Samples;Min_cycle;Max_cycle;Signal;HPM_P1;HPM_P2
2021/09/12 00:01:29;;;;;;;27.42;22.77;;;;;;;14.91;100.00;100823.19;1737723;81;21037;-91
2021/09/12 00:03:52;;;;;;;27.00;22.07;;;;;;;14.94;100.00;100828.17;1737479;81;21062;-91
2021/09/12 00:06:19;;;;;;;27.70;21.87;;;;;;;14.94;100.00;100821.62;1717490;81;21406;-91
2021/09/12 00:09:03;;;;;;;;;;;;;;;;;;;;;
2021/09/12 00:11:26;;;;;;;33.05;23.67;;;;;;;14.88;100.00;100835.75;1676760;84;21547;-88
2021/09/12 00:13:54;;;;;;;26.33;22.55;;;;;;;14.78;100.00;100834.45;1711109;81;20990;-90
2021/09/12 00:16:23;;;;;;;28.02;23.00;;;;;;;14.65;100.00;100828.98;1717583;82;21123;-93
2021/09/12 00:18:59;;;;;;;32.50;23.10;;;;;;;14.57;100.00;100830.61;1742860;81;21096;-90
2021/09/12 00:21:30;;;;;;;32.45;23.70;;;;;;;14.50;100.00;100829.03;1719611;82;21049;-91
2021/09/12 00:24:11;;;;;;;28.98;22.73;;;;;;;14.47;100.00;100826.67;1575061;90;21137;-91
2021/09/12 00:26:46;;;;;;;;;;;;;;;;;;;;;
2021/09/12 00:29:14;;;;;;;30.50;22.37;;;;;;;14.49;100.00;100829.49;1524392;92;21086;-91
2021/09/12 00:31:44;;;;;;;24.72;21.05;;;;;;;14.51;100.00;100819.72;1534711;92;21080;-92
2021/09/12 00:34:11;;;;;;;27.65;20.92;;;;;;;14.51;100.00;100817.56;1678341;82;21017;-89
2021/09/12 00:36:38;;;;;;;28.67;20.57;;;;;;;14.54;100.00;100819.10;1718422;81;21521;-91
2021/09/12 00:39:06;;;;;;;25.20;19.27;;;;;;;14.59;100.00;100822.13;1715919;82;21041;-89
2021/09/12 00:41:42;;;;;;;22.00;17.57;;;;;;;14.64;100.00;100815.98;1717422;80;21078;-89
2021/09/12 00:44:12;;;;;;;22.17;17.60;;;;;;;14.69;100.00;100820.85;1694330;82;21091;-91
2021/09/12 00:46:43;;;;;;;22.73;18.05;;;;;;;14.64;100.00;100819.45;1715490;81;21124;-90
2021/09/12 00:49:11;;;;;;;;;;;;;;;14.54;100.00;100817.80;1719878;82;21022;-87
2021/09/12 00:51:38;;;;;;;27.02;17.80;;;;;;;14.36;100.00;100816.65;1742231;81;20220;-89
2021/09/12 00:54:09;;;;;;;26.33;19.35;;;;;;;14.25;100.00;100815.47;1717325;82;21072;-88
2021/09/12 00:56:40;;;;;;;23.25;19.80;;;;;;;14.27;100.00;100813.52;1717649;81;21057;-88
2021/09/12 00:59:10;;;;;;;26.60;19.87;;;;;;;14.29;100.00;100814.23;1714580;81;21563;-88
2021/09/12 01:01:41;;;;;;;29.37;19.30;;;;;;;14.27;100.00;100813.52;1742965;81;21933;-89
2021/09/12 01:04:10;;;;;;;31.55;18.98;;;;;;;14.24;100.00;100819.05;1717834;82;21127;-90
2021/09/12 01:06:39;;;;;;;22.35;19.37;;;;;;;14.22;100.00;100825.39;1742915;81;21603;-89
2021/09/12 01:09:06;;;;;;;23.47;18.98;;;;;;;14.20;100.00;100814.56;1718523;82;21191;-89
2021/09/12 01:11:35;;;;;;;26.48;19.42;;;;;;;14.20;100.00;100817.18;1717517;82;21073;-89
2021/09/12 01:14:03;;;;;;;21.42;18.12;;;;;;;14.24;100.00;100819.52;1717939;82;21120;-89
2021/09/12 01:16:31;;;;;;;21.40;17.55;;;;;;;14.29;100.00;100817.34;1718334;82;20970;-90
2021/09/12 01:18:59;;;;;;;21.12;18.10;;;;;;;14.27;100.00;100817.95;1742379;81;21010;-91
2021/09/12 01:21:27;;;;;;;22.42;18.25;;;;;;;14.14;100.00;100820.31;1717861;82;21572;-90
2021/09/12 01:23:55;;;;;;;35.43;19.10;;;;;;;14.08;100.00;100823.47;1742775;81;21006;-88
2021/09/12 01:26:26;;;;;;;26.75;17.90;;;;;;;14.09;100.00;100822.52;1718583;82;21093;-91
2021/09/12 01:28:55;;;;;;;22.75;17.75;;;;;;;14.12;100.00;100819.64;1717670;82;21144;-89
2021/09/12 01:31:30;;;;;;;26.73;19.65;;;;;;;14.13;100.00;100820.45;1717905;82;21155;-91
2021/09/12 01:33:59;;;;;;;26.45;18.95;;;;;;;14.16;100.00;100821.02;1718110;82;21084;-90
2021/09/12 01:36:29;;;;;;;26.40;21.47;;;;;;;14.19;100.00;100822.53;1742613;81;21524;-91
2021/09/12 01:38:56;;;;;;;27.87;23.10;;;;;;;14.20;100.00;100826.34;1717547;82;21070;-89
2021/09/12 01:41:25;;;;;;;34.33;23.55;;;;;;;14.15;100.00;100823.28;1742185;81;21040;-87
2021/09/12 01:43:59;;;;;;;27.27;22.77;;;;;;;14.00;100.00;100827.23;1717702;82;21819;-89
2021/09/12 01:46:27;;;;;;;31.37;23.73;;;;;;;13.88;100.00;100824.73;1743213;81;21061;-88
2021/09/12 01:48:57;;;;;;;35.17;23.83;;;;;;;13.90;100.00;100818.53;1718258;82;21056;-89
2021/09/12 01:51:24;;;;;;;30.10;24.05;;;;;;;13.93;100.00;100821.72;1741273;80;21003;-89
2021/09/12 01:53:51;;;;;;;29.32;23.42;;;;;;;13.93;100.00;100819.56;1716291;80;21022;-89
2021/09/12 01:56:19;;;;;;;31.62;24.05;;;;;;;13.85;100.00;100820.23;1704515;82;21789;-91
2021/09/12 01:58:47;;;;;;;30.32;24.02;;;;;;;13.74;100.00;100821.13;1717056;81;21022;-90
2021/09/12 02:01:14;;;;;;;27.93;23.52;;;;;;;13.69;100.00;100822.86;1716578;81;21117;-89
2021/09/12 02:03:43;;;;;;;30.02;23.45;;;;;;;13.72;100.00;100819.15;1715814;82;20986;-88
2021/09/12 02:06:10;;;;;;;27.75;23.00;;;;;;;13.72;100.00;100825.69;1718594;81;21068;-88
2021/09/12 02:08:43;;;;;;;29.82;23.22;;;;;;;13.73;100.00;100820.81;1708585;82;21105;-91
2021/09/12 02:11:12;;;;;;;38.33;25.02;;;;;;;13.74;100.00;100818.52;1742626;81;21199;-90
2021/09/12 02:13:39;;;;;;;31.35;23.15;;;;;;;13.80;100.00;100814.55;1707503;82;20955;-90
2021/09/12 02:16:08;;;;;;;26.35;21.62;;;;;;;13.82;100.00;100818.69;1743351;80;21068;-89
2021/09/12 02:18:37;;;;;;;27.52;22.45;;;;;;;13.80;100.00;100815.39;1748709;82;21456;-90
2021/09/12 02:21:06;;;;;;;29.48;22.90;;;;;;;13.77;100.00;100824.81;1748506;82;21331;-90
2021/09/12 02:23:33;;;;;;;30.92;23.47;;;;;;;13.72;100.00;100824.38;1725500;82;21067;-90
2021/09/12 02:26:02;;;;;;;32.05;22.90;;;;;;;13.60;100.00;100816.25;1725464;82;21011;-89
2021/09/12 02:28:31;;;;;;;36.50;24.95;;;;;;;13.54;100.00;100820.23;1748526;82;21063;-89
2021/09/12 02:30:58;;;;;;;38.23;24.72;;;;;;;13.57;100.00;100821.27;1725610;82;21507;-89
2021/09/12 02:33:25;;;;;;;28.75;23.47;;;;;;;13.63;100.00;100820.73;1725591;82;21551;-91
2021/09/12 02:35:53;;;;;;;31.42;23.35;;;;;;;13.69;100.00;100818.09;1725270;82;21772;-89
2021/09/12 02:38:20;;;;;;;32.60;24.02;;;;;;;13.70;100.00;100821.88;1725360;82;21052;-90
2021/09/12 02:40:48;;;;;;;30.17;23.85;;;;;;;13.63;100.00;100825.16;1715335;82;21021;-89
2021/09/12 02:43:15;;;;;;;30.08;23.67;;;;;;;13.63;100.00;100819.44;1715709;82;21586;-90
2021/09/12 02:45:44;;;;;;;31.45;24.00;;;;;;;13.64;100.00;100821.59;1721329;81;21091;-89
2021/09/12 02:48:11;;;;;;;32.50;23.27;;;;;;;13.60;100.00;100830.64;1732577;80;21399;-88
2021/09/12 02:50:38;;;;;;;44.70;23.47;;;;;;;13.50;100.00;100830.10;1751369;80;21054;-89
2021/09/12 02:53:06;;;;;;;29.92;22.95;;;;;;;13.45;100.00;100828.86;1744761;81;21065;-88
2021/09/12 02:55:33;;;;;;;67.08;25.27;;;;;;;13.43;100.00;100816.37;1739172;80;21051;-88
2021/09/12 02:58:00;;;;;;;35.45;23.77;;;;;;;13.41;100.00;100823.05;1699071;83;21114;-90
2021/09/12 03:00:27;;;;;;;48.52;23.87;;;;;;;13.43;100.00;100822.42;1678065;83;21098;-87
2021/09/12 03:02:56;;;;;;;44.18;24.70;;;;;;;13.49;100.00;100828.94;1718497;80;21066;-87
2021/09/12 03:05:23;;;;;;;41.08;22.60;;;;;;;13.55;100.00;100823.17;1773325;80;21124;-87
2021/09/12 03:07:52;;;;;;;42.70;23.67;;;;;;;13.61;100.00;100820.53;1752006;80;21289;-88
2021/09/12 03:10:20;;;;;;;39.30;22.40;;;;;;;13.66;100.00;100820.98;1750864;80;21762;-88
2021/09/12 03:12:49;;;;;;;40.88;26.25;;;;;;;13.68;100.00;100824.28;1772942;80;21604;-87
2021/09/12 03:15:16;;;;;;;40.40;26.68;;;;;;;13.65;100.00;100820.63;1750532;80;21104;-87
2021/09/12 03:17:43;;;;;;;44.13;26.97;;;;;;;13.72;100.00;100828.31;1749416;80;21113;-88
2021/09/12 03:20:11;;;;;;;41.08;25.90;;;;;;;13.84;100.00;100817.27;1738091;80;21164;-88
2021/09/12 03:22:39;;;;;;;34.40;23.38;;;;;;;13.94;100.00;100819.91;1733505;80;21813;-87
2021/09/12 03:25:08;;;;;;;28.73;20.92;;;;;;;13.96;100.00;100821.44;1762584;80;20996;-88
2021/09/12 03:27:35;;;;;;;29.48;22.05;;;;;;;13.96;100.00;100831.09;1695791;83;21105;-88
2021/09/12 03:30:03;;;;;;;25.90;21.35;;;;;;;13.94;100.00;100829.08;1683559;84;22507;-88
2021/09/12 03:32:33;;;;;;;31.20;22.58;;;;;;;13.91;100.00;100830.64;1727781;80;21080;-90
2021/09/12 03:35:03;;;;;;;40.60;24.02;;;;;;;13.86;100.00;100835.80;1746646;80;21096;-87
2021/09/12 03:37:36;;;;;;;36.53;23.73;;;;;;;13.78;100.00;100836.13;1769009;80;21035;-86
2021/09/12 03:40:01;;;;;;;32.83;21.90;;;;;;;13.72;100.00;100842.70;1737665;81;21514;-88
2021/09/12 03:42:31;;;;;;;27.25;22.27;;;;;;;13.69;100.00;100842.48;1739935;81;21570;-90
2021/09/12 03:44:59;;;;;;;28.47;21.52;;;;;;;13.65;100.00;100842.88;1761530;81;21055;-89
2021/09/12 03:47:26;;;;;;;31.30;22.37;;;;;;;13.63;100.00;100841.67;1739871;81;21046;-88
2021/09/12 03:49:56;;;;;;;29.48;23.38;;;;;;;13.60;100.00;100849.80;1761431;81;21023;-88
2021/09/12 03:52:25;;;;;;;36.35;24.70;;;;;;;13.57;100.00;100842.20;1762866;80;21462;-86
2021/09/12 03:54:53;;;;;;;29.57;23.45;;;;;;;13.55;100.00;100845.41;1746655;80;21113;-86
2021/09/12 03:57:23;;;;;;;28.27;22.93;;;;;;;13.50;100.00;100852.83;1747022;81;22020;-90
2021/09/12 03:59:52;;;;;;;31.37;21.95;;;;;;;13.45;100.00;100858.45;1729190;81;21088;-86
2021/09/12 04:02:19;;;;;;;28.45;21.52;;;;;;;13.42;100.00;100854.77;1747681;80;21380;-87
2021/09/12 04:04:46;;;;;;;28.62;21.60;;;;;;;13.44;100.00;100857.27;1741654;80;21085;-87
2021/09/12 04:07:15;;;;;;;30.70;22.48;;;;;;;13.36;100.00;100850.87;1778584;80;21049;-88
2021/09/12 04:09:42;;;;;;;30.88;21.73;;;;;;;13.31;100.00;100861.36;1753594;80;21046;-86
2021/09/12 04:12:10;;;;;;;29.37;20.92;;;;;;;13.29;100.00;100854.95;1750962;80;21115;-89
2021/09/12 04:14:38;;;;;;;30.70;21.45;;;;;;;13.32;100.00;100855.98;1753258;80;21088;-90
2021/09/12 04:20:12;;;;;;;;;;;;;;;;;;;;;
2021/09/12 04:22:54;;;;;;;;;;;;;;;;;;;;;
2021/09/12 04:25:42;;;;;;;;;;;;;;;;;;;;;
2021/09/12 04:28:24;;;;;;;;;;;;;;;;;;;;;
2021/09/12 04:30:58;;;;;;;;;;;;;;;;;;;;;
2021/09/12 04:33:37;;;;;;;;;;;;;;;;;;;;;
2021/09/12 06:50:20;;;;;;;28.40;17.85;;;;;;;18.28;100.00;100831.92;1741174;78;21134;-88
2021/09/12 06:52:48;;;;;;;24.85;18.62;;;;;;;18.39;100.00;100843.13;1685146;83;21100;-85
2021/09/12 06:55:16;;;;;;;20.85;16.97;;;;;;;18.50;100.00;100842.83;1687910;82;21111;-86
2021/09/12 06:57:43;;;;;;;22.93;17.30;;;;;;;18.62;100.00;100845.98;1656882;84;21276;-88
2021/09/12 07:00:12;;;;;;;22.90;17.17;;;;;;;18.74;100.00;100846.02;1700961;82;21143;-88
2021/09/12 07:02:40;;;;;;;26.02;17.40;;;;;;;18.87;100.00;100846.01;1712142;81;21339;-88
2021/09/12 07:05:09;;;;;;;46.73;19.05;;;;;;;19.01;100.00;100845.38;1692375;82;21037;-88
2021/09/12 07:07:38;;;;;;;30.90;17.23;;;;;;;19.15;100.00;100847.85;1701169;83;21017;-87
2021/09/12 07:10:06;;;;;;;30.08;16.97;;;;;;;19.32;100.00;100847.33;1679336;83;21463;-90
2021/09/12 07:12:33;;;;;;;23.87;16.93;;;;;;;19.48;100.00;100852.25;1676842;83;21054;-89
2021/09/12 07:15:00;;;;;;;24.63;16.37;;;;;;;19.66;100.00;100853.38;1659101;83;21061;-88
2021/09/12 07:20:24;;;;;;;;;;;;;;;;;;;;;
2021/09/12 07:22:47;;;;;;;23.52;16.82;;;;;;;20.07;100.00;100852.43;1568330;87;21206;-90
2021/09/12 07:25:16;;;;;;;19.07;15.55;;;;;;;20.18;100.00;100858.16;1592989;88;21113;-88
2021/09/12 07:27:43;;;;;;;23.12;15.68;;;;;;;20.31;100.00;100852.31;1593276;87;21276;-89
2021/09/12 07:30:14;;;;;;;20.85;15.23;;;;;;;20.42;100.00;100857.69;1593514;87;21090;-88
2021/09/12 07:32:49;;;;;;;21.87;15.32;;;;;;;20.55;100.00;100852.34;1678124;82;21078;-88
2021/09/12 07:35:12;;;;;;;21.20;15.08;;;;;;;20.69;100.00;100858.19;1648332;83;21112;-87
2021/09/12 07:37:41;;;;;;;17.73;15.35;;;;;;;20.82;100.00;100856.31;1699966;83;21140;-88
2021/09/12 07:40:11;;;;;;;20.75;16.62;;;;;;;20.94;100.00;100854.88;1695692;83;21148;-89
2021/09/12 07:42:41;;;;;;;28.60;15.47;;;;;;;21.09;100.00;100848.31;1619148;86;21099;-88
2021/09/12 07:45:11;;;;;;;24.23;14.43;;;;;;;21.26;100.00;100851.63;1641405;85;21829;-89
2021/09/12 07:47:40;;;;;;;21.65;15.08;;;;;;;21.43;98.43;100857.56;1659136;84;21142;-88
2021/09/12 07:50:10;;;;;;;18.32;13.50;;;;;;;21.57;91.55;100847.19;1593095;87;21653;-88
2021/09/12 07:52:41;;;;;;;19.50;13.78;;;;;;;21.68;88.14;100852.03;1644102;85;21086;-88
2021/09/12 07:55:11;;;;;;;21.33;13.43;;;;;;;21.78;87.65;100849.13;1678829;84;21044;-88
2021/09/12 07:57:42;;;;;;;31.30;15.68;;;;;;;21.88;82.23;100841.70;1618128;87;22077;-90
2021/09/12 08:00:12;;;;;;;23.32;12.82;;;;;;;22.00;81.32;100839.91;1601020;87;21133;-89
2021/09/12 08:02:44;;;;;;;18.40;13.80;;;;;;;22.14;81.45;100840.90;1620012;87;21028;-89
2021/09/12 08:05:12;;;;;;;19.70;12.03;;;;;;;22.28;75.98;100833.41;1671422;82;21145;-89
2021/09/12 08:07:39;;;;;;;20.23;12.80;;;;;;;22.45;77.53;100836.66;1635656;84;21087;-87
2021/09/12 08:10:09;;;;;;;23.52;12.90;;;;;;;22.62;78.61;100829.78;1669772;84;21079;-88
2021/09/12 08:12:38;;;;;;;18.80;13.43;;;;;;;22.78;83.38;100834.02;1670739;84;21140;-89
2021/09/12 08:15:10;;;;;;;22.90;13.93;;;;;;;22.96;78.77;100828.23;1671213;83;20954;-89
2021/09/12 08:17:37;;;;;;;19.90;12.35;;;;;;;23.13;82.40;100824.29;1641900;84;21563;-85
2021/09/12 08:20:07;;;;;;;16.90;12.00;;;;;;;23.32;65.26;100823.30;1658097;86;21122;-84
2021/09/12 08:22:34;;;;;;;23.73;12.60;;;;;;;23.47;63.65;100827.18;1666570;84;21572;-87
2021/09/12 08:25:05;;;;;;;22.17;12.35;;;;;;;23.63;64.75;100822.06;1648006;86;21084;-86
2021/09/12 08:27:32;;;;;;;20.57;12.53;;;;;;;23.78;64.39;100818.77;1641651;86;21079;-85
2021/09/12 08:30:00;;;;;;;23.00;12.50;;;;;;;23.96;63.03;100821.91;1627532;86;21107;-86
2021/09/12 08:32:28;;;;;;;16.27;11.43;;;;;;;24.12;58.61;100818.91;1649578;84;21102;-86
2021/09/12 08:34:55;;;;;;;13.40;11.03;;;;;;;24.24;57.92;100817.28;1652617;85;21493;-87
2021/09/12 08:37:22;;;;;;;17.17;10.72;;;;;;;24.37;54.61;100814.36;1672439;83;21076;-85
2021/09/12 08:39:49;;;;;;;17.98;11.97;;;;;;;24.50;53.80;100813.55;1593530;88;21609;-87
2021/09/12 08:42:18;;;;;;;11.35;8.63;;;;;;;24.62;54.64;100814.58;1671358;84;21163;-84
2021/09/12 08:47:43;;;;;;;15.53;8.58;;;;;;;24.91;49.36;100811.25;1795949;79;21999;-88
2021/09/12 08:50:12;;;;;;;14.50;7.92;;;;;;;25.01;48.32;100808.16;1765810;80;21116;-87
2021/09/12 08:52:41;;;;;;;13.00;8.15;;;;;;;25.12;47.79;100806.70;1731189;81;21105;-86
2021/09/12 08:55:08;;;;;;;12.80;6.55;;;;;;;25.23;43.94;100803.92;1727159;82;21489;-87
2021/09/12 08:57:35;;;;;;;8.85;7.53;;;;;;;25.33;43.99;100799.79;1734879;81;21007;-85
2021/09/12 09:00:19;;;;;;;13.10;8.10;;;;;;;25.43;44.11;100800.73;1753520;80;21096;-86
2021/09/12 09:02:46;;;;;;;12.37;6.67;;;;;;;25.54;43.85;100801.09;1747450;81;20965;-87
2021/09/12 09:05:24;;;;;;;11.18;5.85;;;;;;;25.67;42.13;100802.40;1734421;80;21056;-87
2021/09/12 09:08:15;;;;;;;10.75;5.12;;;;;;;25.75;42.68;100798.16;1721624;80;21002;-88
2021/09/12 09:10:50;;;;;;;9.93;4.75;;;;;;;25.86;40.93;100790.50;1726239;81;21019;-87
2021/09/12 09:13:35;;;;;;;9.20;4.53;;;;;;;26.00;40.86;100792.06;1739278;82;21082;-85
2021/09/12 09:16:15;;;;;;;13.98;4.53;;;;;;;26.14;40.67;100786.16;1718934;82;21133;-86
2021/09/12 09:18:42;;;;;;;8.75;4.90;;;;;;;26.26;39.46;100787.13;1742023;80;21111;-86
2021/09/12 09:21:26;;;;;;;13.18;5.10;;;;;;;26.36;38.75;100784.50;1757226;80;21026;-86
2021/09/12 09:24:21;;;;;;;22.05;6.17;;;;;;;26.45;39.04;100784.52;1741638;80;21043;-84
2021/09/12 09:29:27;;;;;;;11.25;4.90;;;;;;;26.71;37.72;100781.34;1777144;80;20517;-86
2021/09/12 09:32:12;;;;;;;9.45;4.30;;;;;;;26.79;36.68;100778.42;1763334;80;21167;-85
2021/09/12 09:34:43;;;;;;;5.42;4.03;;;;;;;26.86;37.44;100777.03;1749051;81;21588;-85
2021/09/12 09:37:18;;;;;;;8.60;3.77;;;;;;;26.92;37.09;100774.81;1763824;80;21037;-86
2021/09/12 09:39:56;;;;;;;21.15;4.87;;;;;;;27.00;36.53;100767.84;1748983;81;21100;-83
2021/09/12 09:42:42;;;;;;;8.63;5.03;;;;;;;27.06;36.90;100772.30;1748171;81;21459;-84
2021/09/12 09:45:16;;;;;;;13.15;5.10;;;;;;;27.14;35.50;100773.04;1727462;80;21123;-85
2021/09/12 09:47:49;;;;;;;11.28;5.05;;;;;;;27.21;34.22;100764.42;1754046;80;21011;-85
2021/09/12 09:50:24;;;;;;;12.07;4.53;;;;;;;27.24;35.27;100767.47;1779156;80;21006;-85
2021/09/12 09:52:54;;;;;;;14.70;5.47;;;;;;;27.32;36.39;100765.57;1749006;81;21687;-85
2021/09/12 09:55:25;;;;;;;;;;;;;;;27.39;36.58;100767.11;1724732;82;20983;-86
2021/09/12 09:57:55;;;;;;;10.23;4.20;;;;;;;27.45;34.48;100765.43;1686082;83;21129;-82
2021/09/12 10:00:25;;;;;;;7.67;4.65;;;;;;;27.48;33.97;100761.48;1658897;85;21036;-87
2021/09/12 10:02:52;;;;;;;5.92;4.50;;;;;;;27.50;35.78;100768.23;1686639;83;21087;-85
2021/09/12 10:05:20;;;;;;;11.03;4.20;;;;;;;27.60;36.57;100757.00;1636549;85;21274;-85
2021/09/12 10:07:49;;;;;;;4.62;4.05;;;;;;;27.70;36.02;100758.63;1711909;83;21097;-86
2021/09/12 10:10:19;;;;;;;8.48;4.28;;;;;;;27.82;35.28;100753.85;1663803;84;21833;-84
2021/09/12 10:12:54;;;;;;;11.43;4.10;;;;;;;27.88;34.75;100753.47;1687895;83;21046;-86
2021/09/12 10:15:34;;;;;;;7.45;4.40;;;;;;;27.90;33.02;100745.51;1708631;82;21154;-85
2021/09/12 10:18:02;;;;;;;9.30;4.33;;;;;;;27.87;34.07;100743.27;1690571;83;21502;-85
2021/09/12 10:20:31;;;;;;;6.12;4.35;;;;;;;27.88;33.86;100747.59;1707308;82;21113;-85
2021/09/12 10:23:06;;;;;;;6.85;4.03;;;;;;;27.89;33.40;100743.88;1711472;82;21073;-84
2021/09/12 10:25:43;;;;;;;7.42;4.05;;;;;;;27.93;34.94;100742.89;1677732;85;21061;-86
2021/09/12 10:28:10;;;;;;;9.08;4.72;;;;;;;27.92;35.22;100739.41;1678569;83;21015;-83
2021/09/12 10:30:40;;;;;;;9.83;5.87;;;;;;;27.98;34.16;100742.51;1680145;84;21066;-84
2021/09/12 10:33:19;;;;;;;11.30;4.87;;;;;;;28.00;33.79;100739.59;1663503;83;21031;-85
2021/09/12 10:36:03;;;;;;;11.85;5.70;;;;;;;28.00;32.16;100739.06;1673192;83;21277;-85
2021/09/12 10:38:43;;;;;;;10.05;5.03;;;;;;;27.99;33.02;100733.44;1741905;80;22070;-85
2021/09/12 10:41:13;;;;;;;7.87;4.70;;;;;;;28.00;32.13;100732.37;1745309;81;21120;-84
2021/09/12 10:43:43;;;;;;;13.55;4.92;;;;;;;28.01;34.09;100737.22;1759117;80;21447;-84
2021/09/12 10:46:16;;;;;;;9.13;4.73;;;;;;;28.05;33.46;100732.22;1751677;80;21116;-86
2021/09/12 10:49:04;;;;;;;8.30;5.15;;;;;;;28.09;32.46;100725.38;1736167;81;21069;-85
2021/09/12 10:51:36;;;;;;;10.00;4.47;;;;;;;28.12;33.55;100721.72;1755017;80;21097;-86
2021/09/12 10:54:03;;;;;;;7.40;4.27;;;;;;;28.17;34.16;100725.05;1689618;83;22186;-84
2021/09/12 10:56:33;;;;;;;6.12;4.20;;;;;;;28.21;33.62;100724.89;1691969;83;21845;-85
2021/09/12 10:59:09;;;;;;;7.40;4.22;;;;;;;28.23;34.75;100717.45;1700520;82;21062;-86
2021/09/12 11:01:46;;;;;;;4.97;4.47;;;;;;;28.28;34.42;100720.25;1699368;82;21042;-86
2021/09/12 11:04:17;;;;;;;5.95;4.67;;;;;;;28.32;34.06;100714.70;1665583;84;21074;-86
2021/09/12 11:06:50;;;;;;;10.50;4.95;;;;;;;28.37;33.37;100719.38;1668953;84;21122;-85
2021/09/12 11:09:21;;;;;;;8.78;4.70;;;;;;;28.35;33.37;100714.80;1673364;85;21124;-84
2021/09/12 11:11:51;;;;;;;8.78;4.45;;;;;;;28.28;33.43;100720.25;1688559;83;21125;-85
2021/09/12 11:14:19;;;;;;;6.83;4.87;;;;;;;28.10;33.86;100717.65;1678473;85;21083;-86
2021/09/12 11:16:47;;;;;;;14.23;4.78;;;;;;;27.86;33.87;100717.06;1684308;83;21274;-85
2021/09/12 11:19:15;;;;;;;8.65;4.80;;;;;;;27.69;33.83;100708.84;1689447;83;21066;-85
2021/09/12 11:21:50;;;;;;;7.00;4.83;;;;;;;27.60;34.18;100715.55;1697567;83;21068;-85
2021/09/12 11:24:22;;;;;;;6.87;4.90;;;;;;;27.58;33.16;100709.64;1744673;82;20959;-85
2021/09/12 11:26:59;;;;;;;8.73;4.87;;;;;;;27.52;32.91;100708.67;1742105;80;21084;-85
2021/09/12 11:29:33;;;;;;;13.28;5.78;;;;;;;27.51;33.22;100711.58;1729116;82;21065;-84
2021/09/12 11:32:06;;;;;;;8.10;4.60;;;;;;;27.54;33.46;100705.77;1747068;81;21085;-88
2021/09/12 11:34:38;;;;;;;11.95;4.65;;;;;;;27.63;32.36;100704.95;1725824;82;21097;-85
2021/09/12 11:37:16;;;;;;;6.97;4.45;;;;;;;27.70;32.36;100701.66;1746655;82;20992;-85
2021/09/12 11:39:46;;;;;;;9.98;4.25;;;;;;;27.80;33.24;100699.76;1725949;81;21106;-84
2021/09/12 11:42:18;;;;;;;8.03;4.42;;;;;;;27.91;33.66;100696.81;1747619;82;21087;-83
2021/09/12 11:44:55;;;;;;;9.55;4.80;;;;;;;27.99;33.44;100701.33;1723699;82;21051;-85
2021/09/12 11:47:21;;;;;;;7.97;4.22;;;;;;;28.00;34.20;100694.91;1725146;82;21051;-88
2021/09/12 11:50:14;;;;;;;9.75;4.58;;;;;;;28.01;34.12;100688.52;1726602;82;21528;-88
2021/09/12 11:52:42;;;;;;;10.28;4.05;;;;;;;28.07;33.87;100692.17;1749303;81;21136;-85
2021/09/12 11:55:29;;;;;;;8.40;4.62;;;;;;;28.12;33.10;100690.14;1736274;81;22052;-86
2021/09/12 11:58:06;;;;;;;8.55;4.72;;;;;;;28.15;32.90;100684.34;1736867;81;21045;-87
2021/09/12 12:00:43;;;;;;;7.17;4.53;;;;;;;28.18;32.04;100685.20;1743656;80;21050;-85
2021/09/12 12:03:15;;;;;;;7.12;4.37;;;;;;;28.22;32.97;100681.53;1751686;80;21015;-84
2021/09/12 12:05:44;;;;;;;4.87;4.05;;;;;;;28.23;33.27;100678.64;1744300;80;21055;-85
2021/09/12 12:08:17;;;;;;;8.48;4.50;;;;;;;28.24;32.88;100682.13;1751685;80;21522;-86
2021/09/12 12:10:46;;;;;;;5.00;4.47;;;;;;;28.22;32.98;100678.86;1754597;80;21038;-86
2021/09/12 12:13:13;;;;;;;7.53;4.15;;;;;;;28.23;33.16;100685.84;1742112;80;21092;-84
2021/09/12 12:15:48;;;;;;;5.37;3.87;;;;;;;28.19;32.17;100680.14;1693613;82;21554;-85
2021/09/12 12:18:22;;;;;;;11.08;5.05;;;;;;;28.17;30.98;100679.55;1690164;83;21037;-85
2021/09/12 12:20:50;;;;;;;12.63;5.42;;;;;;;28.13;30.59;100679.73;1668676;85;21102;-85
2021/09/12 12:23:24;;;;;;;8.15;4.53;;;;;;;28.08;30.02;100675.61;1755701;80;21184;-85
2021/09/12 12:25:57;;;;;;;7.35;4.50;;;;;;;28.03;30.89;100674.39;1698208;83;21327;-85
2021/09/12 12:28:27;;;;;;;8.85;4.28;;;;;;;27.97;29.99;100671.30;1699566;83;21696;-85
2021/09/12 12:31:15;;;;;;;4.95;4.45;;;;;;;27.92;30.22;100671.70;1683827;84;21076;-85
2021/09/12 12:33:45;;;;;;;6.35;5.10;;;;;;;27.86;29.88;100666.73;1682239;83;22003;-86
2021/09/12 12:36:16;;;;;;;5.62;4.67;;;;;;;27.82;30.83;100665.58;1741129;80;21066;-84
2021/09/12 12:38:45;;;;;;;;;;;;;;;27.77;31.63;100658.23;1705291;82;21742;-86
2021/09/12 12:41:17;;;;;;;13.05;6.12;;;;;;;27.71;31.36;100664.51;1659585;85;20191;-85
2021/09/12 12:43:44;;;;;;;11.25;6.00;;;;;;;27.66;30.84;100659.01;1730817;82;21073;-84
2021/09/12 12:46:11;;;;;;;5.70;4.75;;;;;;;27.58;29.83;100657.48;1737321;80;21132;-86
2021/09/12 12:48:44;;;;;;;10.35;5.75;;;;;;;27.51;30.92;100654.09;1709849;82;21068;-85
2021/09/12 12:51:18;;;;;;;8.48;6.67;;;;;;;27.48;30.85;100655.88;1712987;82;21050;-86
2021/09/12 12:53:54;;;;;;;11.00;6.72;;;;;;;27.42;31.01;100652.75;1709300;82;21023;-85
2021/09/12 12:56:23;;;;;;;9.23;5.87;;;;;;;27.34;32.27;100652.53;1716112;82;21182;-83
2021/09/12 12:58:51;;;;;;;8.28;6.00;;;;;;;27.33;31.96;100652.23;1717783;82;21042;-86
2021/09/12 13:01:18;;;;;;;9.28;5.83;;;;;;;27.32;32.12;100654.10;1709388;82;21062;-85
2021/09/12 13:03:45;;;;;;;10.23;6.42;;;;;;;27.34;32.38;100652.53;1708881;82;21011;-85
2021/09/12 13:06:21;;;;;;;7.22;6.22;;;;;;;27.31;31.78;100654.34;1665089;83;21103;-85
2021/09/12 13:08:48;;;;;;;12.58;5.67;;;;;;;27.26;31.45;100640.31;1667201;83;21145;-85
2021/09/12 13:11:16;;;;;;;6.53;5.58;;;;;;;27.20;31.47;100639.89;1679673;83;21051;-85
2021/09/12 13:13:44;;;;;;;11.75;5.87;;;;;;;27.15;31.71;100642.40;1708419;82;21095;-85
2021/09/12 13:16:14;;;;;;;5.40;4.45;;;;;;;27.07;32.84;100639.00;1650079;83;21522;-85
2021/09/12 13:18:42;;;;;;;12.30;4.75;;;;;;;27.02;33.10;100642.05;1713862;82;20995;-85
2021/09/12 13:21:09;;;;;;;12.33;4.47;;;;;;;26.95;32.20;100647.48;1702769;82;21818;-85
2021/09/12 13:23:36;;;;;;;5.37;4.28;;;;;;;26.88;32.73;100647.55;1657466;83;21813;-87
2021/09/12 13:26:03;;;;;;;8.35;3.77;;;;;;;26.82;32.56;100652.45;1680730;84;21537;-85
2021/09/12 13:28:30;;;;;;;6.97;4.25;;;;;;;26.76;31.77;100652.82;1681675;83;21059;-86
2021/09/12 13:30:58;;;;;;;9.50;5.53;;;;;;;26.73;32.30;100645.21;1740281;81;21057;-85
2021/09/12 13:33:30;;;;;;;15.80;5.30;;;;;;;26.68;32.60;100646.94;1747026;80;21042;-87
2021/09/12 13:35:53;;;;;;;6.30;4.22;;;;;;;26.62;32.80;100652.64;1750244;80;21626;-84
2021/09/12 13:38:20;;;;;;;7.28;4.75;;;;;;;26.56;32.77;100646.86;1751814;80;21671;-87
2021/09/12 13:40:47;;;;;;;8.48;4.92;;;;;;;26.52;32.71;100648.32;1737662;81;21074;-85
2021/09/12 13:43:16;;;;;;;11.95;4.85;;;;;;;26.47;32.52;100644.97;1745415;81;21013;-86
2021/09/12 13:45:47;;;;;;;7.03;4.30;;;;;;;26.43;32.27;100643.27;1746290;81;21051;-85
2021/09/12 13:48:16;;;;;;;9.88;4.15;;;;;;;26.42;32.04;100644.30;1747384;82;21530;-88
2021/09/12 13:50:45;;;;;;;7.95;4.00;;;;;;;26.41;32.02;100643.19;1726113;81;21089;-84
2021/09/12 13:53:19;;;;;;;7.00;3.65;;;;;;;26.38;31.94;100643.63;1726503;82;22272;-87
2021/09/12 13:55:56;;;;;;;4.85;3.40;;;;;;;26.34;31.75;100643.78;1747241;80;20994;-87
2021/09/12 13:58:31;;;;;;;4.62;3.55;;;;;;;26.28;31.30;100646.27;1745499;81;21014;-86
2021/09/12 14:00:58;;;;;;;4.95;3.52;;;;;;;26.27;32.02;100645.16;1726296;82;21473;-85
2021/09/12 14:03:25;;;;;;;8.48;4.17;;;;;;;26.24;32.00;100642.42;1726479;82;21694;-86
2021/09/12 14:05:52;;;;;;;12.25;6.65;;;;;;;26.24;31.70;100645.09;1723516;82;21011;-85